createdAt,value
2019-01-16T00:35:42.925Z,4.30
2019-01-16T00:38:53.636Z,4.37
2019-01-16T01:16:30.348Z,5.20
2019-01-16T01:40:55.296Z,3.20
2019-01-16T01:44:07.960Z,3.30
2019-01-16T01:47:23.404Z,2.83
2019-01-16T01:50:30.979Z,3.60
2019-01-16T01:53:59.603Z,3.30
2019-01-16T01:57:11.550Z,2.73
2019-01-16T02:10:47.139Z,3.30
2019-01-16T02:13:55.295Z,3.13
2019-01-16T02:17:24.404Z,3.27
2019-01-16T02:20:40.049Z,3.00
2019-01-16T02:24:14.440Z,3.73
2019-01-16T05:47:23.348Z,6.43
2019-01-16T05:49:53.697Z,5.93
2019-01-16T05:52:30.137Z,6.57
2019-01-16T05:55:16.662Z,8.37
2019-01-16T05:57:46.935Z,8.50
2019-01-16T06:00:20.122Z,8.87
2019-01-16T06:02:50.339Z,7.80
2019-01-16T06:05:32.911Z,9.87
2019-01-16T06:08:19.424Z,12.13
2019-01-16T06:10:52.742Z,12.00
2019-01-16T06:13:39.059Z,7.60
2019-01-16T06:16:15.416Z,9.50
2019-01-16T06:18:45.632Z,13.33
2019-01-16T06:21:21.920Z,17.43
2019-01-16T06:24:01.256Z,32.73
2019-01-16T06:26:46.901Z,51.97
2019-01-16T06:29:35.206Z,46.60
2019-01-16T06:32:21.726Z,30.60
2019-01-16T06:35:10.426Z,24.37
2019-01-16T06:37:52.797Z,12.17
2019-01-16T06:40:23.081Z,7.43
2019-01-16T06:42:53.877Z,9.13
2019-01-16T06:45:36.354Z,11.43
2019-01-16T06:48:12.441Z,10.10
2019-01-16T06:50:42.746Z,10.43
2019-01-16T06:53:29.538Z,7.20
2019-01-16T06:56:13.299Z,4.17
2019-01-16T06:58:44.500Z,4.07
2019-01-16T07:01:19.594Z,5.30
2019-01-16T07:03:50.892Z,7.60
2019-01-16T07:06:40.285Z,4.23
2019-01-16T07:09:19.890Z,4.73
2019-01-16T07:11:50.164Z,3.43
2019-01-16T07:14:32.841Z,5.87
2019-01-16T07:17:13.661Z,5.60
2019-01-16T07:19:47.123Z,6.63
2019-01-16T07:22:34.026Z,7.97
2019-01-16T07:25:07.072Z,8.77
2019-01-16T07:27:43.537Z,8.97
2019-01-16T07:30:15.187Z,6.70
2019-01-16T07:33:01.746Z,6.63
2019-01-16T07:35:34.814Z,4.90
2019-01-16T07:38:07.544Z,5.43
2019-01-16T07:40:40.437Z,4.17
2019-01-16T07:43:13.429Z,7.30
2019-01-16T07:45:55.518Z,5.97
2019-01-16T07:48:25.729Z,6.43
2019-01-16T07:51:04.802Z,3.67
2019-01-16T07:53:37.869Z,3.00
2019-01-16T07:56:08.143Z,3.13
2019-01-16T07:58:38.413Z,3.37
2019-01-16T08:01:08.728Z,3.47
2019-01-16T08:03:47.949Z,3.47
2019-01-16T08:06:18.294Z,3.37
2019-01-16T08:08:57.330Z,3.37
2019-01-16T08:11:30.362Z,3.67
2019-01-16T08:14:09.210Z,3.27
2019-01-16T08:16:51.494Z,3.40
2019-01-16T08:19:33.347Z,3.07
2019-01-16T08:22:03.588Z,3.53
2019-01-16T08:24:36.650Z,10.30
2019-01-16T08:27:07.019Z,3.13
2019-01-16T08:29:49.317Z,3.23
2019-01-16T08:32:22.652Z,2.47
2019-01-16T08:35:09.437Z,2.47
2019-01-16T08:37:54.780Z,2.47
2019-01-16T08:40:25.045Z,2.27
2019-01-16T08:43:00.920Z,4.03
2019-01-16T08:45:49.267Z,11.87
2019-01-16T08:48:40.574Z,3.40
2019-01-16T08:51:10.875Z,4.20
2019-01-16T08:53:55.329Z,2.63
2019-01-16T08:56:41.894Z,3.70
2019-01-16T08:59:31.622Z,3.17
2019-01-16T09:02:01.889Z,3.07
2019-01-16T09:04:48.435Z,3.10
2019-01-16T09:07:34.847Z,4.17
2019-01-16T09:10:22.016Z,3.03
2019-01-16T09:12:52.290Z,4.27
2019-01-16T09:15:22.562Z,8.23
2019-01-16T09:18:05.029Z,4.70
2019-01-16T09:20:41.047Z,3.67
2019-01-16T09:23:11.237Z,3.97
2019-01-16T09:25:57.788Z,2.70
2019-01-16T09:28:44.542Z,2.10
2019-01-16T09:31:14.793Z,2.10
2019-01-16T09:34:02.891Z,2.07
2019-01-16T09:36:33.095Z,3.03
2019-01-16T09:39:06.076Z,3.07
2019-01-16T09:41:52.752Z,2.57
2019-01-16T09:44:28.958Z,2.70
2019-01-16T09:46:59.127Z,1.97
2019-01-16T09:49:45.576Z,15.47
2019-01-16T09:52:21.565Z,3.53
2019-01-16T09:55:03.989Z,2.07
2019-01-16T09:57:34.175Z,2.63
2019-01-16T10:00:07.400Z,3.30
2019-01-16T10:02:54.111Z,2.30
2019-01-16T10:05:39.671Z,1.80
2019-01-16T10:08:15.902Z,2.90
2019-01-16T10:10:49.178Z,2.03
2019-01-16T10:13:25.353Z,1.70
2019-01-16T10:16:01.514Z,2.03
2019-01-16T10:18:40.954Z,1.60
2019-01-16T10:21:27.401Z,2.40
2019-01-16T10:23:57.648Z,1.83
2019-01-16T10:26:36.825Z,1.70
2019-01-16T10:29:13.308Z,1.53
2019-01-16T10:31:49.715Z,1.30
2019-01-16T10:34:35.359Z,1.60
2019-01-16T10:37:17.889Z,5.80
2019-01-16T10:40:04.242Z,1.80
2019-01-16T10:42:52.790Z,1.90
2019-01-16T10:45:26.076Z,2.13
2019-01-16T10:47:56.352Z,4.97
2019-01-16T10:50:35.889Z,2.30
2019-01-16T10:53:12.093Z,1.73
2019-01-16T10:55:42.429Z,1.70
2019-01-16T10:58:24.980Z,1.60
2019-01-16T11:00:55.264Z,2.20
2019-01-16T11:03:28.492Z,1.97
2019-01-16T11:06:04.536Z,1.80
2019-01-16T11:08:37.533Z,1.93
2019-01-16T11:11:22.792Z,2.07
2019-01-16T11:13:55.953Z,2.67
2019-01-16T11:16:42.928Z,2.47
2019-01-16T11:19:13.228Z,2.50
2019-01-16T11:21:46.513Z,7.77
2019-01-16T11:24:32.158Z,7.20
2019-01-16T11:27:05.296Z,4.80
2019-01-16T11:29:35.617Z,2.63
2019-01-16T11:32:14.770Z,3.00
2019-01-16T11:34:48.400Z,3.10
2019-01-16T11:37:35.044Z,2.60
2019-01-16T11:40:24.524Z,2.43
2019-01-16T11:42:57.493Z,3.37
2019-01-16T11:45:27.817Z,2.40
2019-01-16T11:48:04.059Z,2.57
2019-01-16T11:50:37.347Z,2.67
2019-01-16T11:53:07.613Z,2.50
2019-01-16T11:55:57.006Z,2.77
2019-01-16T11:58:30.305Z,2.70
2019-01-16T12:01:00.576Z,2.80
2019-01-16T12:03:30.887Z,4.10
2019-01-16T12:06:12.715Z,3.00
2019-01-16T12:08:43.029Z,2.83
2019-01-16T12:11:29.694Z,2.13
2019-01-16T12:14:15.152Z,2.70
2019-01-16T12:17:01.793Z,2.60
2019-01-16T12:19:44.201Z,2.70
2019-01-16T12:22:23.369Z,2.27
2019-01-16T12:25:11.806Z,2.13
2019-01-16T12:27:58.544Z,2.33
2019-01-16T12:30:34.859Z,2.67
2019-01-16T12:33:17.468Z,2.03
2019-01-16T12:35:56.764Z,2.10
2019-01-16T12:38:27.748Z,2.33
2019-01-16T12:41:13.153Z,2.13
2019-01-16T12:43:56.112Z,2.00
2019-01-16T12:46:29.524Z,2.10
2019-01-16T12:48:59.713Z,2.60
2019-01-16T12:51:33.691Z,1.90
2019-01-16T12:54:02.026Z,1.70
2019-01-16T12:56:32.221Z,1.90
2019-01-16T12:59:02.730Z,2.23
2019-01-16T13:01:49.754Z,2.13
2019-01-16T13:04:25.966Z,1.43
2019-01-16T13:06:59.189Z,1.90
2019-01-16T13:09:29.948Z,1.40
2019-01-16T13:12:09.261Z,1.60
2019-01-16T13:14:51.226Z,1.67
2019-01-16T13:17:42.518Z,1.70
2019-01-16T13:20:13.284Z,1.20
2019-01-16T13:22:46.140Z,1.40
2019-01-16T13:25:31.807Z,1.30
2019-01-16T13:28:17.146Z,2.07
2019-01-16T13:30:56.061Z,1.90
2019-01-16T13:33:26.303Z,1.87
2019-01-16T13:35:59.578Z,1.90
2019-01-16T13:38:36.174Z,1.50
2019-01-16T13:41:15.983Z,1.70
2019-01-16T13:43:52.439Z,1.60
2019-01-16T13:46:34.475Z,1.80
2019-01-16T13:49:10.725Z,2.20
2019-01-16T13:51:46.426Z,1.70
2019-01-16T13:54:15.957Z,1.63
2019-01-16T13:56:46.210Z,2.10
2019-01-16T13:59:19.509Z,2.00
2019-01-16T14:01:55.551Z,2.17
2019-01-16T14:04:40.769Z,2.23
2019-01-16T14:07:11.049Z,2.00
2019-01-16T14:09:57.342Z,2.00
2019-01-16T14:12:33.539Z,2.20
2019-01-16T14:15:19.590Z,2.83
2019-01-16T14:17:52.936Z,1.97
2019-01-16T14:20:29.090Z,1.70
2019-01-16T14:23:08.414Z,2.00
2019-01-16T14:25:54.024Z,2.40
2019-01-16T14:28:36.204Z,2.40
2019-01-16T14:31:16.119Z,2.30
2019-01-16T14:33:55.474Z,2.50
2019-01-16T14:36:41.859Z,2.67
2019-01-16T14:39:14.947Z,2.47
2019-01-16T14:42:02.786Z,2.57
2019-01-16T14:44:35.895Z,2.60
2019-01-16T14:47:10.106Z,2.60
2019-01-16T14:49:49.404Z,2.57
2019-01-16T14:52:31.606Z,4.53
2019-01-16T14:55:18.417Z,3.20
2019-01-16T14:57:54.453Z,3.93
2019-01-16T15:00:42.750Z,3.30
2019-01-16T15:03:29.885Z,2.83
2019-01-16T15:06:03.021Z,2.73
2019-01-16T15:08:49.484Z,3.07
2019-01-16T15:11:19.670Z,3.07
2019-01-16T15:14:07.573Z,2.93
2019-01-16T15:16:40.491Z,2.93
2019-01-16T15:19:10.877Z,3.03
2019-01-16T15:21:41.186Z,2.80
2019-01-16T15:24:27.590Z,3.60
2019-01-16T15:27:10.008Z,2.83
2019-01-16T15:29:58.393Z,3.03
2019-01-16T15:32:42.088Z,3.63
2019-01-16T15:35:29.982Z,3.13
2019-01-16T15:38:18.542Z,3.50
2019-01-16T15:40:48.848Z,3.53
2019-01-16T15:43:34.986Z,3.10
2019-01-16T15:46:20.258Z,2.80
2019-01-16T15:48:50.800Z,3.43
2019-01-16T15:51:21.040Z,2.90
2019-01-16T15:54:07.726Z,2.57
2019-01-16T15:56:47.039Z,2.73
2019-01-16T15:59:20.276Z,2.97
2019-01-16T16:02:07.829Z,3.10
2019-01-16T16:04:41.009Z,3.00
2019-01-16T16:07:11.341Z,3.00
2019-01-16T16:09:41.614Z,2.83
2019-01-16T16:12:15.019Z,2.53
2019-01-16T16:14:51.238Z,3.83
2019-01-16T16:17:34.567Z,2.93
2019-01-16T16:20:21.244Z,3.00
2019-01-16T16:22:51.758Z,5.13
2019-01-16T16:25:25.060Z,3.67
2019-01-16T16:28:11.759Z,2.87
2019-01-16T16:30:59.422Z,4.60
2019-01-16T16:33:33.044Z,4.13
2019-01-16T16:36:04.814Z,4.73
2019-01-16T16:38:35.086Z,4.80
2019-01-16T16:41:08.518Z,5.30
2019-01-16T16:43:38.865Z,4.10
2019-01-16T16:46:24.159Z,4.33
2019-01-16T16:49:11.247Z,7.17
2019-01-16T16:51:48.858Z,10.80
2019-01-16T16:54:19.133Z,12.17
2019-01-16T16:57:04.770Z,7.03
2019-01-16T16:59:52.349Z,9.67
2019-01-16T17:02:39.630Z,10.50
2019-01-16T17:05:29.560Z,10.50
2019-01-16T17:08:12.138Z,7.53
2019-01-16T17:10:59.654Z,4.70
2019-01-16T17:13:29.960Z,7.90
2019-01-16T17:16:18.453Z,14.23
2019-01-16T17:18:59.311Z,11.13
2019-01-16T17:21:50.505Z,14.03
2019-01-16T17:24:27.330Z,11.33
2019-01-16T17:27:00.499Z,12.17
2019-01-16T17:29:42.891Z,14.63
2019-01-16T17:32:13.277Z,15.73
2019-01-16T17:35:04.615Z,17.83
2019-01-16T17:37:51.172Z,21.33
2019-01-16T17:40:38.468Z,11.70
2019-01-16T17:43:11.531Z,6.13
2019-01-16T17:45:59.688Z,4.93
2019-01-16T17:48:46.543Z,4.30
2019-01-16T17:51:16.890Z,3.83
2019-01-16T17:53:55.657Z,3.13
2019-01-16T17:56:35.138Z,2.80
2019-01-16T17:59:05.416Z,3.03
2019-01-16T18:01:41.489Z,2.93
2019-01-16T18:04:30.191Z,3.17
2019-01-16T18:07:15.327Z,2.40
2019-01-16T18:09:54.805Z,3.00
2019-01-16T18:12:31.179Z,4.03
2019-01-16T18:15:18.184Z,2.47
2019-01-16T18:18:00.855Z,3.97
2019-01-16T18:20:47.925Z,3.80
2019-01-16T18:23:28.025Z,4.27
2019-01-16T18:25:58.268Z,4.37
2019-01-16T18:28:28.408Z,4.80
2019-01-16T18:31:01.790Z,4.23
2019-01-16T18:33:51.725Z,3.93
2019-01-16T18:36:22.055Z,5.30
2019-01-16T18:38:58.222Z,4.63
2019-01-16T18:41:42.464Z,3.70
2019-01-16T18:44:36.987Z,4.70
2019-01-16T18:47:29.527Z,4.97
2019-01-16T18:50:09.928Z,3.97
2019-01-16T18:52:41.831Z,4.30
2019-01-16T18:55:12.112Z,4.20
2019-01-16T18:57:42.357Z,4.10
2019-01-16T19:00:33.273Z,5.43
2019-01-16T19:03:03.557Z,5.27
2019-01-16T19:05:36.845Z,5.57
2019-01-16T19:08:11.162Z,5.07
2019-01-16T19:10:41.440Z,4.97
2019-01-16T19:13:22.085Z,5.23
2019-01-16T19:16:01.798Z,3.70
2019-01-16T19:18:41.086Z,4.63
2019-01-16T19:21:29.565Z,17.27
2019-01-16T19:24:09.721Z,20.67
2019-01-16T19:26:56.435Z,20.77
2019-01-16T19:29:39.019Z,21.20
2019-01-16T19:32:17.631Z,20.67
2019-01-16T19:34:57.048Z,18.80
2019-01-16T19:37:37.238Z,17.60
2019-01-16T19:40:26.704Z,20.20
2019-01-16T19:43:06.002Z,21.27
2019-01-16T19:46:00.210Z,45.30
2019-01-16T19:48:41.935Z,31.40
2019-01-16T19:51:14.918Z,29.33
2019-01-16T19:54:03.727Z,25.97
2019-01-16T19:56:47.056Z,26.77
2019-01-16T19:59:17.308Z,25.33
2019-01-16T20:02:07.217Z,25.70
2019-01-16T20:04:40.294Z,26.00
2019-01-16T20:07:24.218Z,21.27
2019-01-16T20:09:54.530Z,15.20
2019-01-16T20:12:30.997Z,13.73
2019-01-16T20:15:01.301Z,10.93
2019-01-16T20:17:39.648Z,9.60
2019-01-16T20:20:14.947Z,10.13
2019-01-16T20:23:01.445Z,8.07
2019-01-16T20:25:34.570Z,8.90
2019-01-16T20:28:21.090Z,5.03
2019-01-16T20:30:52.102Z,5.93
2019-01-16T20:33:44.669Z,4.83
2019-01-16T20:36:15.000Z,5.13
2019-01-16T20:39:01.834Z,6.00
2019-01-16T20:41:39.304Z,6.20
2019-01-16T20:44:12.663Z,6.97
2019-01-16T20:46:45.718Z,7.23
2019-01-16T20:49:25.039Z,10.87
2019-01-16T20:52:11.150Z,8.87
2019-01-16T20:54:47.511Z,11.80
2019-01-16T20:57:26.194Z,9.93
2019-01-16T20:59:56.524Z,12.53
2019-01-16T21:02:30.743Z,14.80
2019-01-16T21:05:17.004Z,13.20
2019-01-16T21:07:50.390Z,17.53
2019-01-16T21:10:38.184Z,28.17
2019-01-16T21:13:08.616Z,45.67
2019-01-16T21:15:39.011Z,24.20
2019-01-16T21:18:13.402Z,18.83
2019-01-16T21:20:51.675Z,17.83
2019-01-16T21:23:38.342Z,19.23
2019-01-16T21:26:17.830Z,20.30
2019-01-16T21:29:03.229Z,15.87
2019-01-16T21:31:36.391Z,14.63
2019-01-16T21:34:09.786Z,11.37
2019-01-16T21:36:43.096Z,9.03
2019-01-16T21:39:28.144Z,8.60
2019-01-16T21:42:09.220Z,9.47
2019-01-16T21:44:48.862Z,9.33
2019-01-16T21:47:19.136Z,9.50
2019-01-16T21:49:55.237Z,10.10
2019-01-16T21:52:45.219Z,9.40
2019-01-16T21:55:19.836Z,9.60
2019-01-16T21:58:07.765Z,10.27
2019-01-16T22:00:45.964Z,11.27
2019-01-16T22:03:16.390Z,13.13
2019-01-16T22:05:56.618Z,15.60
2019-01-16T22:08:35.915Z,13.93
2019-01-16T22:11:27.190Z,9.23
2019-01-16T22:14:03.142Z,11.53
2019-01-16T22:16:53.720Z,10.50
2019-01-16T22:19:41.760Z,12.20
2019-01-16T22:22:24.850Z,14.00
2019-01-16T22:25:11.574Z,13.27
2019-01-16T22:27:48.610Z,12.70
2019-01-16T22:30:22.386Z,11.10
2019-01-16T22:32:58.738Z,10.13
2019-01-16T22:35:31.682Z,11.17
2019-01-16T22:38:10.152Z,11.40
2019-01-16T22:40:40.444Z,12.17
2019-01-16T22:43:25.945Z,12.47
2019-01-16T22:46:12.505Z,13.23
2019-01-16T22:48:45.707Z,13.40
2019-01-16T22:51:29.964Z,12.57
2019-01-16T22:54:12.270Z,11.57
2019-01-16T22:56:59.025Z,9.60
2019-01-16T22:59:51.376Z,8.83
2019-01-16T23:02:24.443Z,9.53
2019-01-16T23:05:12.395Z,9.60
2019-01-16T23:07:42.718Z,9.93
2019-01-16T23:10:19.814Z,9.30
2019-01-16T23:12:55.297Z,9.17
2019-01-16T23:15:28.318Z,13.17
2019-01-16T23:18:15.033Z,11.70
2019-01-16T23:20:58.194Z,9.93
2019-01-16T23:23:49.646Z,13.40
2019-01-16T23:26:25.691Z,15.17
2019-01-16T23:29:14.368Z,14.83
2019-01-16T23:31:50.260Z,13.27
2019-01-16T23:34:20.686Z,14.23
2019-01-16T23:37:07.277Z,15.33
2019-01-16T23:39:43.437Z,14.77
2019-01-16T23:42:25.622Z,11.37
2019-01-16T23:45:11.757Z,11.90
2019-01-16T23:47:43.107Z,12.93
2019-01-16T23:50:29.799Z,10.87
2019-01-16T23:53:18.213Z,8.30
2019-01-16T23:55:51.687Z,9.03
2019-01-16T23:58:32.008Z,8.67
